Meath Environmental Platform

Observations for Trim Market St

Time AQI Temp °C Hum % Pres Pa CO μg/m³ H₂S μg/m³ NO μg/m³ NO₂ μg/m³ O₃ μg/m³ SO₂ μg/m³ PM1 μg/m³ PM2.5 μg/m³ PM10 μg/m³
Sunday 23 August 2026
05:57 2 13.5 69 56,948 0.37 0 2.68 7.23 50.94 0 0.71 2.63 4.36
05:54 2 13.5 69 56,961 0.38 0 2.63 7.18 51.05 0 0.71 2.63 6.26
05:53 2 13.5 69 56,959 0.37 0 2.53 7.28 51.53 0 1.43 2.63 4.36
05:50 2 13.5 69 56,959 0.39 0 2.35 7.18 51.45 0 1.43 4.09 6.26
05:42 2 13.5 69 56,863 0.37 0 2.3 7.24 50.4 0 2.14 3.58 6.27
05:41 2 13.5 69 56,855 0.38 0 2.14 7.19 50.84 0 0.71 2.12 3.74
05:40 2 13.5 69 56,848 0.38 0 2.29 7.34 51.21 0 0.71 2.12 3.74
05:39 2 13.5 69 56,846 0.38 0 2.43 7.39 51.03 0 1.43 2.61 5
05:37 2 13.5 69 56,840 0.38 0 2.45 7.51 50.86 0 1.43 3.58 5.64
05:36 2 13.5 69 56,839 0.36 0 2.78 7.7 50.7 0 1.43 3.58 5.63
05:35 2 13.5 69 56,835 0.38 0 2.83 7.51 50.47 0 0.71 2.12 5
05:34 2 13.5 69 56,826 0.37 0 2.79 7.24 50.84 0 1.43 2.6 4.37
05:33 2 13.5 69 56,809 0.37 0 2.73 7.25 50.53 0 0.71 3.09 5.64
05:31 2 13.5 69 56,779 0.37 0 2.19 7.4 50.86 0 0.71 2.6 4.38
05:27 2 13.5 70 56,718 0.37 0 2.4 7.5 50.81 0 1.43 3.56 6.27
05:19 2 13.4 70 56,711 0.37 0 2.6 8.03 49.56 0 0 1.62 3.12
05:18 2 13.4 70 56,711 0.37 0 2.47 7.55 49.67 0 0.71 2.59 4.38
05:17 2 13.4 70 56,699 0.36 0 2.28 7.42 50.8 0 0.71 3.08 5.01
05:11 2 13.4 70 56,558 0.36 0 2.37 7.32 49.18 0 1.43 3.55 5.64
05:10 2 13.4 70 56,515 0.36 0 2.37 7.37 49.67 0 1.43 3.55 5.65